Time;durP1;ratioP1;P1;durP2;ratioP2;P2;SDS_P1;SDS_P2;PMS_P1;PMS_P2;Temp;Humidity;BMP_temperature;BMP_pressure;BME280_temperature;BME280_humidity;BME280_pressure;Samples;Min_cycle;Max_cycle;Signal;HPM_P1;HPM_P2
2023/09/19 00:01:49;;;;;;;17.98;4.00;;;;;;;17.49;100.00;100646.53;5039148;28;20519;-63
2023/09/19 00:04:39;;;;;;;12.32;3.42;;;;;;;17.53;100.00;100648.31;5048407;28;20053;-63
2023/09/19 00:07:28;;;;;;;17.67;4.05;;;;;;;17.61;100.00;100657.75;5053026;28;20149;-63
2023/09/19 00:10:16;;;;;;;8.57;3.17;;;;;;;17.53;100.00;100653.81;5052217;28;20578;-63
2023/09/19 00:13:08;;;;;;;11.57;4.00;;;;;;;17.50;100.00;100651.69;5054043;28;20053;-63
2023/09/19 00:15:58;;;;;;;15.00;3.50;;;;;;;17.50;100.00;100653.66;5025777;28;20057;-63
2023/09/19 00:18:46;;;;;;;11.75;2.97;;;;;;;17.45;100.00;100655.41;5054247;28;20182;-63
2023/09/19 00:21:37;;;;;;;14.48;4.57;;;;;;;17.42;100.00;100658.81;5049113;28;20061;-62
2023/09/19 00:24:25;;;;;;;11.18;3.25;;;;;;;17.43;100.00;100662.38;5036052;28;20048;-65
2023/09/19 00:27:13;;;;;;;15.68;4.22;;;;;;;17.44;100.00;100664.81;5025533;28;20120;-63
2023/09/19 00:30:04;;;;;;;10.98;3.22;;;;;;;17.47;100.00;100674.38;5032433;28;20105;-63
2023/09/19 00:32:52;;;;;;;10.85;3.55;;;;;;;17.39;100.00;100673.22;5026607;28;20501;-61
2023/09/19 00:35:51;;;;;;;15.05;4.15;;;;;;;17.32;100.00;100672.88;5011559;28;20065;-63
2023/09/19 00:38:39;;;;;;;13.52;3.45;;;;;;;17.36;100.00;100676.59;5037170;28;20037;-62
2023/09/19 00:41:30;;;;;;;11.13;3.60;;;;;;;17.42;100.00;100674.53;5015699;28;20144;-63
2023/09/19 00:44:20;;;;;;;9.43;3.05;;;;;;;17.43;100.00;100685.22;5031855;28;20092;-63
2023/09/19 00:47:09;;;;;;;11.27;3.67;;;;;;;17.30;100.00;100683.38;4998069;28;20509;-63
2023/09/19 00:49:57;;;;;;;19.65;3.90;;;;;;;17.30;100.00;100685.31;5000360;28;20046;-62
2023/09/19 00:52:50;;;;;;;10.27;3.03;;;;;;;17.33;100.00;100690.19;5012295;28;20336;-62
2023/09/19 00:55:38;;;;;;;10.95;3.60;;;;;;;17.33;100.00;100691.00;4991079;28;20064;-62
2023/09/19 00:58:32;;;;;;;11.82;3.50;;;;;;;17.36;100.00;100695.88;5032116;28;20057;-63
2023/09/19 01:01:21;;;;;;;12.95;4.25;;;;;;;17.40;100.00;100693.31;5017303;28;20200;-63
2023/09/19 01:04:09;;;;;;;14.35;3.08;;;;;;;17.39;100.00;100700.75;5016441;28;20051;-62
2023/09/19 01:06:57;;;;;;;10.55;3.47;;;;;;;17.33;100.00;100696.50;5031384;28;20045;-63
2023/09/19 01:09:45;;;;;;;13.35;3.72;;;;;;;17.44;100.00;100705.31;5017981;28;20606;-63
2023/09/19 01:12:40;;;;;;;13.27;3.83;;;;;;;17.32;100.00;100700.41;5015889;28;20200;-63
2023/09/19 01:15:54;;;;;;;13.60;3.88;;;;;;;17.27;100.00;100713.47;5018037;28;20072;-63
2023/09/19 01:19:12;;;;;;;13.10;4.03;;;;;;;17.25;100.00;100708.31;5017546;28;20041;-63
2023/09/19 01:22:06;;;;;;;9.82;3.78;;;;;;;17.25;100.00;100720.13;5015703;28;20137;-63
2023/09/19 01:25:34;;;;;;;12.60;3.47;;;;;;;17.25;100.00;100722.06;5025360;28;20049;-63
2023/09/19 01:28:22;;;;;;;12.23;3.40;;;;;;;17.24;100.00;100725.94;5030769;28;20046;-63
2023/09/19 01:31:11;;;;;;;13.82;3.85;;;;;;;17.20;100.00;100723.00;5013202;28;20050;-62
2023/09/19 01:34:04;;;;;;;14.65;3.70;;;;;;;17.11;100.00;100727.66;5011927;28;20034;-62
2023/09/19 01:36:54;;;;;;;13.80;3.50;;;;;;;17.06;100.00;100724.22;5016548;28;20060;-63
2023/09/19 01:39:42;;;;;;;10.25;3.58;;;;;;;17.13;100.00;100732.84;5036788;28;20061;-63
2023/09/19 01:42:55;;;;;;;12.80;3.47;;;;;;;17.07;100.00;100737.66;5049581;28;20049;-62
2023/09/19 01:46:09;;;;;;;13.05;4.05;;;;;;;17.14;100.00;100739.97;5024600;28;20124;-63
2023/09/19 01:49:26;;;;;;;12.88;3.92;;;;;;;17.01;100.00;100733.44;5024787;28;20041;-63
2023/09/19 01:52:19;;;;;;;23.65;3.67;;;;;;;17.07;100.00;100736.84;5039978;28;20238;-63
2023/09/19 01:55:10;;;;;;;13.02;4.07;;;;;;;17.09;100.00;100738.16;5052564;28;20093;-63
2023/09/19 01:58:15;;;;;;;20.98;4.15;;;;;;;17.03;100.00;100733.94;5036229;28;20119;-62
2023/09/19 02:01:05;;;;;;;15.05;3.90;;;;;;;16.85;97.86;100738.47;5038479;28;20045;-63
2023/09/19 02:03:54;;;;;;;13.02;3.50;;;;;;;16.77;97.13;100739.22;5036401;28;20049;-63
2023/09/19 02:06:42;;;;;;;13.25;3.83;;;;;;;16.80;99.72;100735.84;5052539;28;20045;-63
2023/09/19 02:09:30;;;;;;;13.95;3.85;;;;;;;16.77;97.45;100739.22;5036968;28;20521;-65
2023/09/19 02:12:18;;;;;;;12.00;3.50;;;;;;;16.93;100.00;100737.75;5051945;28;20045;-63
2023/09/19 02:15:07;;;;;;;12.32;4.13;;;;;;;16.80;97.03;100735.84;5031446;28;20052;-63
2023/09/19 02:17:56;;;;;;;15.63;4.38;;;;;;;16.72;96.15;100736.59;5031621;28;20100;-62
2023/09/19 02:20:45;;;;;;;19.88;4.68;;;;;;;16.61;94.56;100739.56;5033797;28;20058;-62
2023/09/19 02:23:34;;;;;;;13.75;3.30;;;;;;;16.64;100.00;100745.56;5049234;28;20041;-62
2023/09/19 02:26:23;;;;;;;12.18;3.25;;;;;;;16.73;99.81;100749.19;5033620;28;20044;-63
2023/09/19 02:29:12;;;;;;;15.30;4.32;;;;;;;16.60;94.51;100740.69;5056551;28;20044;-63
2023/09/19 02:32:01;;;;;;;9.50;3.15;;;;;;;16.71;99.88;100743.19;5055569;28;20033;-63
2023/09/19 02:34:51;;;;;;;14.25;4.03;;;;;;;16.54;94.72;100744.66;5031703;28;20079;-63
2023/09/19 02:37:39;;;;;;;10.45;3.70;;;;;;;16.51;93.78;100753.53;5051403;28;20048;-63
2023/09/19 02:40:28;;;;;;;10.07;2.78;;;;;;;16.64;100.00;100759.31;5040123;28;20056;-62
2023/09/19 02:43:17;;;;;;;13.18;3.88;;;;;;;16.59;96.06;100761.06;5043214;28;20044;-62
2023/09/19 02:46:05;;;;;;;11.40;3.45;;;;;;;16.72;98.49;100755.84;5029587;28;20046;-63
2023/09/19 02:48:54;;;;;;;12.77;3.78;;;;;;;16.63;96.21;100761.25;5012115;28;20384;-64
2023/09/19 02:51:42;;;;;;;6.50;2.80;;;;;;;16.69;100.00;100756.44;5056410;28;20404;-64
2023/09/19 02:54:30;;;;;;;10.50;3.53;;;;;;;16.77;100.00;100763.97;5043921;28;20527;-63
2023/09/19 02:57:19;;;;;;;10.00;3.42;;;;;;;16.70;100.00;100760.84;5055120;28;20127;-63
2023/09/19 03:00:10;;;;;;;6.18;2.83;;;;;;;16.79;100.00;100762.56;5036983;28;20042;-63
2023/09/19 03:02:59;;;;;;;14.25;3.60;;;;;;;16.65;99.01;100767.25;5021058;28;20048;-63
2023/09/19 03:05:47;;;;;;;10.40;3.45;;;;;;;16.74;100.00;100768.16;5026072;28;20040;-63
2023/09/19 03:08:41;;;;;;;10.45;3.10;;;;;;;16.60;97.73;100768.19;5055244;28;20049;-62
2023/09/19 03:11:31;;;;;;;13.88;3.75;;;;;;;16.68;100.00;100761.13;5034157;28;20045;-63
2023/09/19 03:14:20;;;;;;;12.02;3.08;;;;;;;16.88;100.00;100761.81;5036950;28;20394;-62
2023/09/19 03:17:09;;;;;;;10.30;3.20;;;;;;;16.92;100.00;100768.31;5028570;28;20124;-62
2023/09/19 03:19:58;;;;;;;10.70;3.47;;;;;;;16.83;100.00;100766.28;5026306;28;20485;-63
2023/09/19 03:22:46;;;;;;;8.80;3.10;;;;;;;16.87;100.00;100760.19;5052234;28;20049;-63
2023/09/19 03:25:35;;;;;;;8.80;3.17;;;;;;;16.70;100.00;100761.63;5020531;28;20124;-62
2023/09/19 03:28:24;;;;;;;7.45;2.80;;;;;;;16.66;100.00;100762.56;5040647;28;20353;-63
2023/09/19 03:31:14;;;;;;;12.48;3.45;;;;;;;16.59;98.79;100772.06;5036922;28;20053;-62
2023/09/19 03:34:03;;;;;;;11.63;3.50;;;;;;;16.67;100.00;100766.94;5045976;28;20045;-62
2023/09/19 03:36:51;;;;;;;9.52;3.17;;;;;;;16.69;100.00;100771.03;5024960;28;20173;-65
2023/09/19 03:39:40;;;;;;;7.80;3.25;;;;;;;16.71;100.00;100770.72;5027039;28;20045;-63
2023/09/19 03:42:28;;;;;;;10.55;3.35;;;;;;;16.53;96.94;100762.31;5030720;28;20037;-62
2023/09/19 03:45:18;;;;;;;10.95;3.20;;;;;;;16.61;100.00;100761.56;4990646;28;20049;-63
2023/09/19 03:48:10;;;;;;;12.23;4.18;;;;;;;16.59;96.55;100754.75;4994177;28;20045;-63
2023/09/19 03:51:00;;;;;;;7.78;2.95;;;;;;;16.49;97.68;100755.78;4998966;28;20053;-62
2023/09/19 03:53:51;;;;;;;12.15;3.30;;;;;;;16.60;99.52;100756.38;5003562;28;20075;-64
2023/09/19 03:56:39;;;;;;;12.70;3.40;;;;;;;16.51;96.25;100758.25;5002150;28;20121;-62
2023/09/19 03:59:29;;;;;;;9.85;3.35;;;;;;;16.51;98.08;100759.03;5026575;28;20579;-63
2023/09/19 04:02:22;;;;;;;8.00;3.00;;;;;;;16.43;100.00;100754.28;5003027;28;20060;-63
2023/09/19 04:05:11;;;;;;;10.55;3.20;;;;;;;16.51;100.00;100759.03;5019226;28;20060;-63
2023/09/19 04:07:59;;;;;;;10.48;3.05;;;;;;;16.41;96.48;100748.28;5018204;28;20440;-63
2023/09/19 04:10:47;;;;;;;9.48;3.20;;;;;;;16.57;100.00;100749.56;5018891;28;20049;-63
2023/09/19 04:13:37;;;;;;;10.52;3.42;;;;;;;16.45;97.53;100749.28;5013402;28;20138;-62
2023/09/19 04:16:26;;;;;;;10.40;2.92;;;;;;;16.54;100.00;100749.34;4998834;28;20038;-64
2023/09/19 04:19:14;;;;;;;11.20;3.22;;;;;;;16.50;98.54;100760.19;5014146;28;20050;-63
2023/09/19 04:22:03;;;;;;;9.00;3.10;;;;;;;16.47;100.00;100769.03;5016232;28;20049;-63
2023/09/19 04:24:51;;;;;;;11.98;3.53;;;;;;;16.30;95.00;100766.91;5024706;28;20038;-64
2023/09/19 04:27:41;;;;;;;11.63;3.17;;;;;;;16.57;100.00;100762.47;4998203;28;20577;-62
2023/09/19 04:30:29;;;;;;;9.85;3.05;;;;;;;16.62;100.00;100776.16;4991842;28;20061;-63
2023/09/19 04:33:17;;;;;;;13.45;3.10;;;;;;;16.43;96.12;100783.69;5012995;28;20077;-63
2023/09/19 04:36:07;;;;;;;8.00;3.13;;;;;;;16.32;97.84;100788.63;4999270;28;20045;-62
2023/09/19 04:39:16;;;;;;;10.60;3.28;;;;;;;16.37;98.92;100807.75;5020759;28;20046;-62
2023/09/19 04:42:05;;;;;;;8.23;2.90;;;;;;;16.43;100.00;100800.19;5017909;28;20049;-63
2023/09/19 04:44:54;;;;;;;11.60;3.22;;;;;;;16.36;98.04;100809.69;5033823;28;20049;-63
2023/09/19 04:47:43;;;;;;;8.32;2.83;;;;;;;16.32;100.00;100821.63;5052900;28;20056;-63
2023/09/19 04:50:32;;;;;;;10.32;3.00;;;;;;;16.32;100.00;100821.63;5045891;28;20493;-63
2023/09/19 04:53:21;;;;;;;14.77;3.25;;;;;;;16.25;97.87;100819.28;5047243;28;20098;-64
2023/09/19 04:56:09;;;;;;;10.77;3.45;;;;;;;16.42;100.00;100826.91;5045707;28;20077;-63
2023/09/19 04:58:58;;;;;;;11.40;3.05;;;;;;;16.44;100.00;100819.16;5059274;28;20056;-64
2023/09/19 05:01:46;;;;;;;8.82;2.80;;;;;;;16.49;100.00;100821.00;5035687;28;20179;-65
2023/09/19 05:04:35;;;;;;;12.52;3.78;;;;;;;16.45;100.00;100818.06;5035509;28;20084;-64
2023/09/19 05:07:26;;;;;;;14.98;3.45;;;;;;;16.56;100.00;100816.69;5045001;28;20048;-64
2023/09/19 05:10:14;;;;;;;9.63;3.30;;;;;;;16.46;100.00;100824.34;5050888;28;20049;-62
2023/09/19 05:13:04;;;;;;;15.23;3.50;;;;;;;16.32;98.80;100833.41;5050945;28;20037;-64
2023/09/19 05:15:52;;;;;;;13.70;3.85;;;;;;;16.36;100.00;100833.63;5049884;28;20061;-64
2023/09/19 05:18:40;;;;;;;8.65;2.92;;;;;;;16.42;100.00;100837.91;5031947;28;20044;-64
2023/09/19 05:21:30;;;;;;;9.48;3.30;;;;;;;16.33;100.00;100836.97;5034026;28;20135;-64
2023/09/19 05:24:18;;;;;;;11.88;3.75;;;;;;;16.28;100.00;100837.09;5045383;28;20506;-63
2023/09/19 05:27:07;;;;;;;9.25;3.15;;;;;;;16.36;100.00;100828.13;5036268;28;20049;-63
2023/09/19 05:29:55;;;;;;;10.57;3.17;;;;;;;16.42;100.00;100840.66;5049435;28;20500;-63
2023/09/19 05:32:43;;;;;;;10.88;3.22;;;;;;;16.45;100.00;100831.81;5030988;28;20050;-63
2023/09/19 05:35:32;;;;;;;10.93;3.60;;;;;;;16.38;100.00;100834.16;5025613;28;20046;-63
2023/09/19 05:38:20;;;;;;;11.27;3.22;;;;;;;16.36;100.00;100844.63;5029495;28;20049;-63
2023/09/19 05:41:13;;;;;;;11.48;3.58;;;;;;;16.40;100.00;100835.47;5029819;28;20053;-63
2023/09/19 05:44:02;;;;;;;7.97;3.05;;;;;;;16.44;100.00;100841.16;5049745;28;20072;-63
2023/09/19 05:46:51;;;;;;;11.43;2.83;;;;;;;16.56;100.00;100843.38;5048319;28;20044;-64
2023/09/19 05:49:40;;;;;;;9.88;3.20;;;;;;;16.64;100.00;100839.09;5038125;28;20037;-64
2023/09/19 05:52:29;;;;;;;12.25;3.80;;;;;;;16.54;100.00;100842.88;5050171;28;20203;-64
2023/09/19 05:55:17;;;;;;;9.15;3.08;;;;;;;16.51;100.00;100832.50;5035381;28;20076;-64
2023/09/19 05:58:05;;;;;;;10.45;3.25;;;;;;;16.49;100.00;100832.78;5051554;28;20045;-64
2023/09/19 06:00:53;;;;;;;10.35;3.55;;;;;;;16.59;100.00;100827.06;4348333;28;10000613;-62
2023/09/19 06:03:41;;;;;;;9.63;2.88;;;;;;;16.51;100.00;100830.56;5046152;28;20080;-64
2023/09/19 06:06:30;;;;;;;10.18;3.33;;;;;;;16.44;100.00;100835.66;5029008;28;20055;-64
2023/09/19 06:09:18;;;;;;;10.77;3.28;;;;;;;16.55;100.00;100844.53;5028413;28;20203;-63
2023/09/19 06:12:12;;;;;;;11.85;3.80;;;;;;;16.51;100.00;100830.56;5027318;28;20143;-64
2023/09/19 06:15:00;;;;;;;8.75;2.72;;;;;;;16.53;100.00;100838.50;5029166;28;20056;-63
2023/09/19 06:17:49;;;;;;;10.55;3.15;;;;;;;16.72;100.00;100830.13;5035944;28;20052;-63
2023/09/19 06:20:44;;;;;;;4.72;2.30;;;;;;;16.78;100.00;100828.88;5046786;28;20056;-63
2023/09/19 06:23:32;;;;;;;9.75;3.42;;;;;;;16.59;100.00;100831.75;5021561;28;20505;-64
2023/09/19 06:26:20;;;;;;;15.90;3.30;;;;;;;16.48;100.00;100850.44;5030348;28;20484;-65
2023/09/19 06:29:08;;;;;;;11.90;3.40;;;;;;;16.54;100.00;100851.94;5041120;28;20079;-65
2023/09/19 06:31:56;;;;;;;13.15;3.78;;;;;;;16.56;100.00;100848.88;5044353;28;20041;-64
2023/09/19 06:34:46;;;;;;;14.43;5.15;;;;;;;16.68;100.00;100857.44;5036517;28;20049;-64
2023/09/19 06:37:38;;;;;;;20.67;6.32;;;;;;;16.65;100.00;100860.00;5023316;28;20057;-64
2023/09/19 06:40:28;;;;;;;26.17;6.65;;;;;;;16.59;100.00;100854.56;5037978;28;20057;-64
2023/09/19 06:43:16;;;;;;;34.95;8.75;;;;;;;16.59;100.00;100873.84;5049911;28;20531;-64
2023/09/19 06:46:04;;;;;;;35.42;9.90;;;;;;;16.64;100.00;100866.59;5050370;28;20397;-64
2023/09/19 06:48:53;;;;;;;30.55;8.00;;;;;;;16.91;100.00;100877.59;5051162;28;20052;-63
2023/09/19 06:51:41;;;;;;;26.15;6.97;;;;;;;16.82;100.00;100885.78;5048252;28;20045;-64
2023/09/19 06:54:31;;;;;;;27.42;7.53;;;;;;;16.66;100.00;100864.38;5051106;28;20049;-64
2023/09/19 06:57:19;;;;;;;25.55;7.18;;;;;;;16.77;100.00;100876.78;5050334;28;20086;-64
2023/09/19 07:00:15;;;;;;;16.05;3.80;;;;;;;16.78;100.00;100868.22;5050041;28;20131;-64
2023/09/19 07:03:11;;;;;;;22.83;5.50;;;;;;;16.82;100.00;100866.50;5032150;28;20052;-64
2023/09/19 07:06:00;;;;;;;13.23;4.47;;;;;;;16.88;100.00;100864.44;5013870;28;20464;-64
2023/09/19 07:08:50;;;;;;;18.50;4.68;;;;;;;17.12;100.00;100866.13;5044708;28;20053;-65
2023/09/19 07:11:38;;;;;;;14.65;4.70;;;;;;;17.09;100.00;100872.25;5034801;28;20045;-61
2023/09/19 07:14:26;;;;;;;19.45;4.63;;;;;;;16.97;100.00;100870.84;5039882;28;20142;-64
2023/09/19 07:17:18;;;;;;;15.35;4.65;;;;;;;16.99;100.00;100874.09;5036499;28;20150;-64
2023/09/19 07:20:07;;;;;;;16.20;4.72;;;;;;;16.98;100.00;100872.50;5020839;28;20057;-64
2023/09/19 07:22:56;;;;;;;13.82;4.28;;;;;;;17.02;100.00;100876.22;5046091;28;20362;-64
2023/09/19 07:25:44;;;;;;;18.42;5.00;;;;;;;17.13;100.00;100878.78;5053219;28;20512;-64
2023/09/19 07:28:33;;;;;;;15.02;4.70;;;;;;;17.10;100.00;100880.22;5039767;28;20509;-63
2023/09/19 07:31:22;;;;;;;16.55;4.07;;;;;;;17.19;100.00;100883.03;5052557;28;20048;-64
2023/09/19 07:34:13;;;;;;;23.80;5.13;;;;;;;17.23;100.00;100878.53;5035084;28;20049;-63
2023/09/19 07:37:02;;;;;;;11.77;3.50;;;;;;;16.87;100.00;100871.09;5034107;28;20049;-63
2023/09/19 07:39:50;;;;;;;73.40;8.40;;;;;;;16.83;100.00;100870.88;5033416;28;20120;-64
2023/09/19 07:42:40;;;;;;;21.25;4.97;;;;;;;16.85;100.00;100884.34;5047465;28;20046;-65
2023/09/19 07:45:30;;;;;;;13.95;4.25;;;;;;;16.72;100.00;100879.66;5020717;28;20049;-64
2023/09/19 07:48:18;;;;;;;14.35;4.07;;;;;;;16.95;100.00;100878.59;5035037;28;20053;-64
2023/09/19 07:51:07;;;;;;;12.05;3.70;;;;;;;17.11;100.00;100875.50;5050047;28;20064;-64
2023/09/19 07:53:55;;;;;;;14.82;3.97;;;;;;;17.22;100.00;100865.88;5038918;28;20045;-63
2023/09/19 07:56:46;;;;;;;6.68;2.58;;;;;;;17.44;100.00;100882.41;4980509;28;20057;-64
2023/09/19 07:59:34;;;;;;;13.57;3.70;;;;;;;17.58;100.00;100878.78;5024248;28;20497;-63
2023/09/19 08:02:22;;;;;;;7.22;2.60;;;;;;;17.41;100.00;100885.81;5052054;28;20099;-63
2023/09/19 08:05:15;;;;;;;30.20;5.15;;;;;;;17.15;100.00;100887.50;5038724;28;20122;-64
2023/09/19 08:08:03;;;;;;;19.70;4.25;;;;;;;16.91;100.00;100891.38;5029170;28;20058;-61
2023/09/19 08:10:56;;;;;;;9.05;3.20;;;;;;;16.98;100.00;100894.50;5032756;28;20069;-62
2023/09/19 08:13:45;;;;;;;12.82;3.22;;;;;;;17.09;100.00;100899.78;5019390;28;20042;-63
2023/09/19 08:16:33;;;;;;;8.63;2.90;;;;;;;17.07;100.00;100896.53;5019589;28;20053;-63
2023/09/19 08:19:23;;;;;;;48.30;7.93;;;;;;;17.10;100.00;100896.72;5034802;28;20041;-63
2023/09/19 08:22:23;;;;;;;9.73;3.33;;;;;;;17.06;100.00;100892.97;5034120;28;20409;-63
2023/09/19 08:25:11;;;;;;;13.48;3.95;;;;;;;17.21;100.00;100878.81;5019479;28;20048;-63
2023/09/19 08:28:01;;;;;;;7.78;2.95;;;;;;;17.01;100.00;100888.38;5025475;28;20048;-64
2023/09/19 08:30:50;;;;;;;12.90;3.33;;;;;;;17.24;100.00;100880.16;5040742;28;20064;-64
2023/09/19 08:33:40;;;;;;;12.82;3.40;;;;;;;17.55;100.00;100882.97;5018570;28;20417;-64
2023/09/19 08:36:30;;;;;;;10.63;3.72;;;;;;;17.36;100.00;100888.66;5019256;28;20195;-65
2023/09/19 08:39:19;;;;;;;14.90;3.95;;;;;;;17.11;100.00;100890.09;5034116;28;20046;-64
2023/09/19 08:42:12;;;;;;;11.15;3.30;;;;;;;17.27;100.00;100889.72;5018930;28;20054;-64
2023/09/19 08:45:01;;;;;;;16.52;3.88;;;;;;;17.48;100.00;100890.84;5033200;28;20057;-64
2023/09/19 08:48:26;;;;;;;13.55;3.72;;;;;;;17.44;100.00;100885.19;5032539;28;20053;-64
2023/09/19 08:51:21;;;;;;;11.00;3.00;;;;;;;17.26;100.00;100886.16;5039481;28;20401;-62
2023/09/19 08:54:22;;;;;;;13.57;3.58;;;;;;;17.23;100.00;100884.03;5033058;28;20061;-63
2023/09/19 08:57:11;;;;;;;17.30;4.00;;;;;;;17.23;100.00;100890.34;5047431;28;20064;-64
2023/09/19 09:00:00;;;;;;;14.48;3.88;;;;;;;17.24;100.00;100888.41;5018979;28;20406;-64
2023/09/19 09:02:49;;;;;;;18.45;4.82;;;;;;;17.24;100.00;100885.66;5018734;28;20509;-64
2023/09/19 09:05:43;;;;;;;13.57;3.47;;;;;;;17.30;100.00;100889.13;5034421;28;20515;-63
2023/09/19 09:08:32;;;;;;;12.35;3.38;;;;;;;17.21;100.00;100891.78;5018652;28;20053;-63
2023/09/19 09:11:24;;;;;;;6.28;2.38;;;;;;;17.42;100.00;100881.91;5018413;28;20051;-63
2023/09/19 09:14:13;;;;;;;16.10;4.10;;;;;;;17.70;99.92;100894.75;5032277;28;20184;-63
2023/09/19 09:17:02;;;;;;;9.35;2.67;;;;;;;17.88;100.00;100894.56;5019177;28;20045;-64
2023/09/19 09:19:54;;;;;;;16.92;4.45;;;;;;;17.75;99.13;100897.34;5018014;28;20037;-65
2023/09/19 09:22:58;;;;;;;14.38;3.78;;;;;;;17.82;99.76;100884.81;5033353;28;20366;-64
2023/09/19 09:25:59;;;;;;;14.68;4.20;;;;;;;17.76;100.00;100901.75;5057384;28;20064;-63
2023/09/19 09:28:49;;;;;;;17.15;4.93;;;;;;;17.93;97.73;100890.06;5053503;28;20448;-63
2023/09/19 09:31:38;;;;;;;12.90;3.65;;;;;;;17.50;98.71;100893.31;5053932;28;20143;-64
2023/09/19 09:34:36;;;;;;;7.97;2.20;;;;;;;17.73;100.00;100877.59;5053634;28;20059;-65
2023/09/19 09:37:26;;;;;;;14.90;3.60;;;;;;;18.09;98.36;100869.22;5018701;28;20132;-62
2023/09/19 09:43:03;;;;;;;11.77;3.30;;;;;;;17.95;100.00;100860.22;5012430;28;20536;-63
2023/09/19 09:52:07;;;;;;;13.52;3.58;;;;;;;17.78;95.99;100867.25;5017768;28;20841;-64
2023/09/19 09:55:07;;;;;;;15.05;3.80;;;;;;;17.75;100.00;100870.63;5030424;28;20049;-64
2023/09/19 09:58:19;;;;;;;11.73;3.17;;;;;;;17.92;100.00;100869.13;5018625;28;20187;-64
2023/09/19 10:01:14;;;;;;;8.32;2.55;;;;;;;17.79;100.00;100868.84;5032586;28;20049;-64
2023/09/19 10:04:04;;;;;;;13.82;3.42;;;;;;;17.95;100.00;100876.78;5022484;28;20053;-63
2023/09/19 10:06:53;;;;;;;13.23;3.80;;;;;;;18.07;100.00;100874.22;4998972;28;20061;-63
2023/09/19 10:09:47;;;;;;;11.98;3.92;;;;;;;18.12;100.00;100876.03;4999724;28;20056;-64
2023/09/19 10:12:38;;;;;;;13.70;3.72;;;;;;;18.35;100.00;100862.97;4992731;28;20042;-63
2023/09/19 10:15:30;;;;;;;5.88;2.20;;;;;;;18.40;100.00;100871.09;5017487;28;20128;-64
2023/09/19 10:18:23;;;;;;;10.63;2.50;;;;;;;18.92;100.00;100872.06;5018372;28;20049;-63
2023/09/19 10:21:11;;;;;;;12.30;2.95;;;;;;;19.01;100.00;100874.03;5031815;28;20097;-64
2023/09/19 10:23:59;;;;;;;13.90;3.03;;;;;;;18.92;99.21;100860.22;5030757;28;20409;-65
2023/09/19 10:26:50;;;;;;;13.10;4.25;;;;;;;18.77;94.04;100869.78;4322489;28;10000287;-63
2023/09/19 10:29:40;;;;;;;7.63;2.65;;;;;;;18.80;100.00;100860.03;5014022;28;20049;-64
2023/09/19 10:32:33;;;;;;;6.25;2.17;;;;;;;19.02;100.00;100854.34;5029420;28;20057;-65
2023/09/19 10:35:21;;;;;;;15.90;4.47;;;;;;;18.81;90.54;100865.25;5028762;28;20502;-65
2023/09/19 10:38:16;;;;;;;11.23;3.70;;;;;;;18.65;95.98;100873.13;5013521;28;20053;-62
2023/09/19 10:41:06;;;;;;;9.70;2.92;;;;;;;18.63;100.00;100858.84;5020880;28;20065;-64
2023/09/19 10:43:55;;;;;;;10.38;3.72;;;;;;;18.51;97.71;100866.94;5016875;28;20045;-62
2023/09/19 10:46:45;;;;;;;10.32;3.15;;;;;;;18.49;95.41;100860.91;5026612;28;20536;-64
2023/09/19 10:49:33;;;;;;;3.50;1.27;;;;;;;18.68;100.00;100858.69;5032027;28;20693;-64
2023/09/19 10:52:24;;;;;;;3.92;1.58;;;;;;;19.22;97.33;100857.59;5032211;28;20068;-63
2023/09/19 10:55:18;;;;;;;7.43;2.22;;;;;;;19.08;93.24;100852.28;5018204;28;20045;-64
2023/09/19 10:58:25;;;;;;;6.43;2.38;;;;;;;19.07;98.20;100857.00;5036093;28;20579;-64
2023/09/19 11:01:14;;;;;;;6.55;2.28;;;;;;;19.10;97.50;100850.00;5031383;28;20434;-64
2023/09/19 11:04:24;;;;;;;12.20;3.80;;;;;;;19.26;88.06;100847.53;5048535;28;20132;-64
2023/09/19 11:07:16;;;;;;;6.47;2.13;;;;;;;19.13;96.16;100844.63;5051126;28;20045;-65
2023/09/19 11:10:04;;;;;;;9.55;3.17;;;;;;;18.92;88.76;100832.59;5050515;28;20168;-63
2023/09/19 11:12:56;;;;;;;11.27;2.95;;;;;;;18.84;93.92;100836.19;5048291;28;20049;-63
2023/09/19 11:15:59;;;;;;;7.93;2.58;;;;;;;19.06;97.30;100827.72;5032241;28;20489;-64
2023/09/19 11:18:53;;;;;;;10.23;2.50;;;;;;;19.07;88.74;100823.00;5035038;28;20072;-65
2023/09/19 11:21:42;;;;;;;8.88;3.00;;;;;;;19.10;88.37;100823.19;5051105;28;20416;-65
2023/09/19 11:24:36;;;;;;;5.97;2.28;;;;;;;19.09;95.58;100818.78;5031475;28;20085;-64
2023/09/19 11:27:29;;;;;;;7.35;2.55;;;;;;;19.16;95.34;100815.53;5034380;28;20507;-62
2023/09/19 11:30:27;;;;;;;7.32;2.45;;;;;;;19.14;91.32;100807.56;5030390;28;20790;-63
2023/09/19 11:33:38;;;;;;;10.02;2.78;;;;;;;19.29;90.68;100802.69;5020007;28;20049;-63
2023/09/19 11:36:45;;;;;;;8.32;2.38;;;;;;;19.10;91.93;100798.34;5025378;28;20056;-63
2023/09/19 11:39:33;;;;;;;9.60;3.05;;;;;;;19.24;85.78;100789.03;5049527;28;20135;-63
2023/09/19 11:42:45;;;;;;;8.27;2.60;;;;;;;19.42;92.25;100796.16;5030720;28;20061;-63
2023/09/19 11:45:43;;;;;;;10.95;3.50;;;;;;;19.53;87.60;100775.34;5016889;28;20049;-63
2023/09/19 11:48:32;;;;;;;7.63;2.78;;;;;;;19.51;90.54;100777.63;5030577;28;20061;-64
2023/09/19 11:51:26;;;;;;;7.78;2.33;;;;;;;19.52;91.32;100779.22;5027643;28;20366;-64
2023/09/19 11:54:18;;;;;;;8.63;2.47;;;;;;;19.55;87.65;100777.75;5034948;28;20203;-63
2023/09/19 11:57:06;;;;;;;5.07;1.85;;;;;;;19.76;89.83;100759.34;5050372;28;20048;-63
2023/09/19 11:59:54;;;;;;;10.70;3.03;;;;;;;19.63;82.79;100767.84;5034749;28;20052;-64
2023/09/19 12:02:47;;;;;;;8.70;2.50;;;;;;;19.80;86.93;100756.72;5025170;28;20075;-62
2023/09/19 12:05:37;;;;;;;11.40;2.55;;;;;;;19.70;82.03;100770.91;5030640;28;20041;-63
2023/09/19 12:08:27;;;;;;;9.52;2.20;;;;;;;19.71;87.33;100770.59;5015659;28;20100;-64
2023/09/19 12:11:16;;;;;;;6.93;2.95;;;;;;;19.78;79.50;100764.53;5030409;28;20390;-62
2023/09/19 12:14:04;;;;;;;6.82;2.13;;;;;;;19.93;86.64;100772.28;5029567;28;20069;-63
2023/09/19 12:16:56;;;;;;;7.43;2.35;;;;;;;20.38;80.27;100763.41;5015254;28;20050;-64
2023/09/19 12:19:52;;;;;;;8.20;2.45;;;;;;;20.15;76.80;100773.13;5029702;28;20053;-63
2023/09/19 12:22:45;;;;;;;10.48;2.42;;;;;;;19.81;80.96;100771.38;5030014;28;20059;-63
2023/09/19 12:25:46;;;;;;;8.95;2.50;;;;;;;19.93;81.64;100771.47;5020316;28;20049;-63
2023/09/19 12:28:45;;;;;;;6.25;1.83;;;;;;;19.71;80.67;100781.63;5029923;28;20045;-64
2023/09/19 12:31:36;;;;;;;7.88;2.38;;;;;;;19.69;80.54;100780.34;5004522;28;20045;-63
2023/09/19 12:34:29;;;;;;;7.28;2.72;;;;;;;19.55;85.83;100789.66;5001625;28;20049;-64
2023/09/19 12:37:53;;;;;;;6.07;2.08;;;;;;;19.54;88.18;100782.47;5047911;28;20523;-63
2023/09/19 12:40:33;;;;;;;5.93;1.97;;;;;;;19.65;85.88;100779.34;5045057;28;20073;-63
2023/09/19 12:43:22;;;;;;;5.47;1.73;;;;;;;19.47;87.51;100782.16;5031136;28;20132;-63
2023/09/19 12:46:10;;;;;;;6.93;2.33;;;;;;;19.41;86.63;100789.03;5029398;28;20156;-63
2023/09/19 12:49:20;;;;;;;5.50;1.90;;;;;;;19.37;83.20;100779.75;5015253;28;20125;-63
2023/09/19 12:52:10;;;;;;;7.47;1.85;;;;;;;19.25;88.58;100774.09;5016424;28;20113;-64
2023/09/19 12:54:58;;;;;;;5.78;2.20;;;;;;;19.31;87.63;100789.34;5016333;28;20135;-64
2023/09/19 12:57:56;;;;;;;7.43;1.75;;;;;;;19.63;87.23;100784.41;5030533;28;20069;-63
2023/09/19 13:00:45;;;;;;;7.72;2.28;;;;;;;19.53;84.23;100778.09;5032418;28;20106;-63
2023/09/19 13:03:34;;;;;;;8.60;2.22;;;;;;;19.69;85.89;100788.63;5021160;28;20060;-64
2023/09/19 13:06:43;;;;;;;10.18;2.20;;;;;;;19.88;85.03;100775.22;5050021;28;20174;-62
2023/09/19 13:09:38;;;;;;;11.13;2.42;;;;;;;19.92;80.08;100781.72;5020472;28;20049;-63
2023/09/19 13:12:37;;;;;;;6.75;1.70;;;;;;;19.74;81.40;100780.16;5036564;28;20095;-63
2023/09/19 13:15:29;;;;;;;2.58;1.40;;;;;;;19.72;85.18;100780.50;5029927;28;20038;-63